createdAt,value
2022-09-28T00:00:13.249Z,979.66
2022-09-28T00:01:13.232Z,979.61
2022-09-28T00:02:13.293Z,979.65
2022-09-28T00:03:13.276Z,979.57
2022-09-28T00:04:13.223Z,979.65
2022-09-28T00:05:13.221Z,979.51
2022-09-28T00:06:13.205Z,979.53
2022-09-28T00:07:13.218Z,979.50
2022-09-28T00:08:13.195Z,979.43
2022-09-28T00:09:13.253Z,979.43
2022-09-28T00:10:13.216Z,979.47
2022-09-28T00:11:13.171Z,979.43
2022-09-28T00:12:13.172Z,979.40
2022-09-28T00:13:13.166Z,979.40
2022-09-28T00:14:13.169Z,979.38
2022-09-28T00:15:13.177Z,979.36
2022-09-28T00:16:13.178Z,979.33
2022-09-28T00:17:13.142Z,979.34
2022-09-28T00:18:13.150Z,979.31
2022-09-28T00:19:13.235Z,979.27
2022-09-28T00:20:13.122Z,979.27
2022-09-28T00:21:14.118Z,979.21
2022-09-28T00:22:13.110Z,979.19
2022-09-28T00:23:13.098Z,979.23
2022-09-28T00:24:13.141Z,979.15
2022-09-28T00:25:13.094Z,979.12
2022-09-28T00:26:13.090Z,979.17
2022-09-28T00:27:13.119Z,979.16
2022-09-28T00:28:13.074Z,979.13
2022-09-28T00:29:13.116Z,979.15
2022-09-28T00:30:13.092Z,979.04
2022-09-28T00:31:13.100Z,979.08
2022-09-28T00:32:13.047Z,979.04
2022-09-28T00:33:13.050Z,979.01
2022-09-28T00:34:13.049Z,979.02
2022-09-28T00:35:13.069Z,979.01
2022-09-28T00:36:13.032Z,979.01
2022-09-28T00:37:13.025Z,979.00
2022-09-28T00:38:13.022Z,978.99
2022-09-28T00:39:13.090Z,979.01
2022-09-28T00:40:13.014Z,978.96
2022-09-28T00:41:13.018Z,979.00
2022-09-28T00:42:12.991Z,979.01
2022-09-28T00:43:12.987Z,978.95
2022-09-28T00:44:12.982Z,978.93
2022-09-28T00:45:12.982Z,978.87
2022-09-28T00:46:13.023Z,978.89
2022-09-28T00:47:12.998Z,978.86
2022-09-28T00:48:12.972Z,978.88
2022-09-28T00:49:12.954Z,978.88
2022-09-28T00:50:12.958Z,978.86
2022-09-28T00:51:12.954Z,978.88
2022-09-28T00:52:12.935Z,978.87
2022-09-28T00:53:12.942Z,978.89
2022-09-28T00:54:12.918Z,978.82
2022-09-28T00:55:12.935Z,978.87
2022-09-28T00:56:12.918Z,978.82
2022-09-28T00:57:12.941Z,978.77
2022-09-28T00:58:12.914Z,978.79
2022-09-28T00:59:12.954Z,978.74
2022-09-28T01:00:12.954Z,978.76
2022-09-28T01:01:12.937Z,978.70
2022-09-28T01:02:12.970Z,978.77
2022-09-28T01:03:12.868Z,978.66
2022-09-28T01:04:12.878Z,978.70
2022-09-28T01:05:12.858Z,978.71
2022-09-28T01:06:12.867Z,978.66
2022-09-28T01:07:12.882Z,978.66
2022-09-28T01:08:12.867Z,978.65
2022-09-28T01:09:12.892Z,978.64
2022-09-28T01:10:12.834Z,978.61
2022-09-28T01:11:12.839Z,978.60
2022-09-28T01:12:12.826Z,978.59
2022-09-28T01:13:12.844Z,978.61
2022-09-28T01:14:12.815Z,978.62
2022-09-28T01:15:12.802Z,978.56
2022-09-28T01:16:12.925Z,978.56
2022-09-28T01:17:12.790Z,978.53
2022-09-28T01:18:12.799Z,978.57
2022-09-28T01:19:12.837Z,978.46
2022-09-28T01:20:12.774Z,978.44
2022-09-28T01:21:12.787Z,978.48
2022-09-28T01:22:12.759Z,978.47
2022-09-28T01:23:12.775Z,978.46
2022-09-28T01:24:12.767Z,978.45
2022-09-28T01:25:12.741Z,978.47
2022-09-28T01:26:12.744Z,978.43
2022-09-28T01:27:13.722Z,978.42
2022-09-28T01:28:12.738Z,978.47
2022-09-28T01:29:12.716Z,978.44
2022-09-28T01:30:12.710Z,978.38
2022-09-28T01:31:12.787Z,978.47
2022-09-28T01:32:13.696Z,978.37
2022-09-28T01:33:12.695Z,978.37
2022-09-28T01:34:12.724Z,978.35
2022-09-28T01:35:12.684Z,978.38
2022-09-28T01:36:12.671Z,978.35
2022-09-28T01:37:12.699Z,978.38
2022-09-28T01:38:12.679Z,978.32
2022-09-28T01:39:12.655Z,978.33
2022-09-28T01:40:12.644Z,978.29
2022-09-28T01:41:12.664Z,978.29
2022-09-28T01:42:12.694Z,978.23
2022-09-28T01:43:12.632Z,978.30
2022-09-28T01:44:12.647Z,978.27
2022-09-28T01:45:12.611Z,978.22
2022-09-28T01:46:12.718Z,978.15
2022-09-28T01:47:12.614Z,978.17
2022-09-28T01:48:12.619Z,978.15
2022-09-28T01:49:12.651Z,978.21
2022-09-28T01:50:12.591Z,978.18
2022-09-28T01:51:12.591Z,978.12
2022-09-28T01:52:12.580Z,978.17
2022-09-28T01:53:12.582Z,978.17
2022-09-28T01:54:12.579Z,978.17
2022-09-28T01:55:12.560Z,978.10
2022-09-28T01:56:12.567Z,978.05
2022-09-28T01:57:12.542Z,978.14
2022-09-28T01:58:12.544Z,978.15
2022-09-28T01:59:12.543Z,978.12
2022-09-28T02:00:12.566Z,978.05
2022-09-28T02:01:12.566Z,978.07
2022-09-28T02:02:12.591Z,978.00
2022-09-28T02:03:13.531Z,977.99
2022-09-28T02:04:12.503Z,978.02
2022-09-28T02:05:12.527Z,977.94
2022-09-28T02:06:12.494Z,977.95
2022-09-28T02:07:12.504Z,977.97
2022-09-28T02:08:12.488Z,977.99
2022-09-28T02:09:12.490Z,977.96
2022-09-28T02:10:12.471Z,977.95
2022-09-28T02:11:12.478Z,977.92
2022-09-28T02:12:12.486Z,977.92
2022-09-28T02:13:44.907Z,977.91
2022-09-28T02:14:12.448Z,977.89
2022-09-28T02:15:12.442Z,977.86
2022-09-28T02:16:12.458Z,977.90
2022-09-28T02:17:12.465Z,977.83
2022-09-28T02:18:12.439Z,977.88
2022-09-28T02:19:12.427Z,977.85
2022-09-28T02:20:12.412Z,977.79
2022-09-28T02:21:12.423Z,977.81
2022-09-28T02:22:12.419Z,977.77
2022-09-28T02:23:12.407Z,977.77
2022-09-28T02:24:12.407Z,977.75
2022-09-28T02:25:12.383Z,977.78
2022-09-28T02:26:12.384Z,977.80
2022-09-28T02:27:12.386Z,977.81
2022-09-28T02:28:12.356Z,977.78
2022-09-28T02:29:12.360Z,977.77
2022-09-28T02:30:12.352Z,977.84
2022-09-28T02:31:12.389Z,977.78
2022-09-28T02:32:12.355Z,977.82
2022-09-28T02:33:12.322Z,977.75
2022-09-28T02:34:12.372Z,977.73
2022-09-28T02:35:12.319Z,977.72
2022-09-28T02:36:12.313Z,977.78
2022-09-28T02:37:12.315Z,977.73
2022-09-28T02:38:12.311Z,977.70
2022-09-28T02:39:12.302Z,977.75
2022-09-28T02:40:12.289Z,977.72
2022-09-28T02:41:12.277Z,977.73
2022-09-28T02:42:12.291Z,977.70
2022-09-28T02:43:12.284Z,977.71
2022-09-28T02:44:12.265Z,977.64
2022-09-28T02:45:12.273Z,977.73
2022-09-28T02:46:12.291Z,977.68
2022-09-28T02:47:12.244Z,977.66
2022-09-28T02:48:12.256Z,977.67
2022-09-28T02:49:22.751Z,977.68
2022-09-28T02:50:14.235Z,977.64
2022-09-28T02:51:12.230Z,977.61
2022-09-28T02:52:12.214Z,977.66
2022-09-28T02:53:12.231Z,977.63
2022-09-28T02:54:16.674Z,977.57
2022-09-28T02:55:14.194Z,977.56
2022-09-28T02:56:12.189Z,977.54
2022-09-28T02:57:12.181Z,977.50
2022-09-28T02:58:12.198Z,977.57
2022-09-28T02:59:12.169Z,977.60
2022-09-28T03:00:12.170Z,977.59
2022-09-28T03:01:12.189Z,977.50
2022-09-28T03:02:12.206Z,977.44
2022-09-28T03:03:12.204Z,977.53
2022-09-28T03:04:12.149Z,977.43
2022-09-28T03:05:12.140Z,977.41
2022-09-28T03:06:12.132Z,977.46
2022-09-28T03:07:12.148Z,977.44
2022-09-28T03:08:12.133Z,977.42
2022-09-28T03:09:12.116Z,977.42
2022-09-28T03:10:12.109Z,977.41
2022-09-28T03:11:12.106Z,977.40
2022-09-28T03:12:12.092Z,977.38
2022-09-28T03:13:12.087Z,977.43
2022-09-28T03:14:12.108Z,977.40
2022-09-28T03:15:12.080Z,977.43
2022-09-28T03:16:12.206Z,977.37
2022-09-28T03:17:12.732Z,977.36
2022-09-28T03:18:12.061Z,977.32
2022-09-28T03:19:12.074Z,977.35
2022-09-28T03:20:12.054Z,977.37
2022-09-28T03:21:12.071Z,977.29
2022-09-28T03:22:12.040Z,977.34
2022-09-28T03:23:24.227Z,977.35
2022-09-28T03:24:14.100Z,977.37
2022-09-28T03:25:12.032Z,977.32
2022-09-28T03:26:12.005Z,977.30
2022-09-28T03:27:12.045Z,977.33
2022-09-28T03:28:11.996Z,977.30
2022-09-28T03:29:12.001Z,977.26
2022-09-28T03:30:12.000Z,977.32
2022-09-28T03:31:12.025Z,977.30
2022-09-28T03:32:11.969Z,977.31
2022-09-28T03:33:11.976Z,977.31
2022-09-28T03:34:11.976Z,977.29
2022-09-28T03:35:11.960Z,977.23
2022-09-28T03:36:12.009Z,977.21
2022-09-28T03:37:11.944Z,977.21
2022-09-28T03:38:11.952Z,977.21
2022-09-28T03:39:11.956Z,977.22
2022-09-28T03:40:12.944Z,977.26
2022-09-28T03:41:11.936Z,977.26
2022-09-28T03:42:11.942Z,977.22
2022-09-28T03:43:11.913Z,977.24
2022-09-28T03:44:11.904Z,977.23
2022-09-28T03:45:11.948Z,977.23
2022-09-28T03:46:12.294Z,977.24
2022-09-28T03:47:11.892Z,977.19
2022-09-28T03:48:11.917Z,977.18
2022-09-28T03:49:11.874Z,977.22
2022-09-28T03:50:11.864Z,977.18
2022-09-28T03:51:11.874Z,977.14
2022-09-28T03:52:11.876Z,977.16
2022-09-28T03:53:11.864Z,977.20
2022-09-28T03:54:11.836Z,977.12
2022-09-28T03:55:11.843Z,977.12
2022-09-28T03:56:11.856Z,977.15
2022-09-28T03:57:11.820Z,977.13
2022-09-28T03:58:11.821Z,977.14
2022-09-28T03:59:11.827Z,977.05
2022-09-28T04:00:11.804Z,977.09
2022-09-28T04:01:16.411Z,977.07
2022-09-28T04:02:13.825Z,977.07
2022-09-28T04:03:11.794Z,977.08
2022-09-28T04:04:11.782Z,977.06
2022-09-28T04:05:11.786Z,977.05
2022-09-28T04:06:11.822Z,977.06
2022-09-28T04:07:11.768Z,977.03
2022-09-28T04:08:11.762Z,977.02
2022-09-28T04:09:11.761Z,977.00
2022-09-28T04:10:11.737Z,977.03
2022-09-28T04:11:11.756Z,977.01
2022-09-28T04:12:11.751Z,977.02
2022-09-28T04:13:11.725Z,977.02
2022-09-28T04:14:11.714Z,977.01
2022-09-28T04:15:11.723Z,976.99
2022-09-28T04:16:11.788Z,976.99
2022-09-28T04:17:11.725Z,977.04
2022-09-28T04:18:11.710Z,977.03
2022-09-28T04:19:11.719Z,977.01
2022-09-28T04:20:11.676Z,977.04
2022-09-28T04:21:11.685Z,977.05
2022-09-28T04:22:11.713Z,977.04
2022-09-28T04:23:11.677Z,977.06
2022-09-28T04:24:12.210Z,977.08
2022-09-28T04:25:11.681Z,977.01
2022-09-28T04:26:11.661Z,977.06
2022-09-28T04:27:11.652Z,977.06
2022-09-28T04:28:11.639Z,977.07
2022-09-28T04:29:11.739Z,977.04
2022-09-28T04:30:11.624Z,977.07
2022-09-28T04:31:11.719Z,977.02
2022-09-28T04:32:11.627Z,976.98
2022-09-28T04:33:11.615Z,977.06
2022-09-28T04:34:11.620Z,977.10
2022-09-28T04:35:11.603Z,977.03
2022-09-28T04:36:11.588Z,977.02
2022-09-28T04:37:11.592Z,976.99
2022-09-28T04:38:11.587Z,977.06
2022-09-28T04:39:11.628Z,977.04
2022-09-28T04:40:11.620Z,977.06
2022-09-28T04:41:11.616Z,977.08
2022-09-28T04:42:11.569Z,977.11
2022-09-28T04:43:12.229Z,977.08
2022-09-28T04:44:11.565Z,977.08
2022-09-28T04:45:14.250Z,977.11
2022-09-28T04:46:11.621Z,977.07
2022-09-28T04:47:11.553Z,977.13
2022-09-28T04:48:11.595Z,977.10
2022-09-28T04:49:11.659Z,977.05
2022-09-28T04:50:11.519Z,977.11
2022-09-28T04:51:11.518Z,977.09
2022-09-28T04:52:17.180Z,977.08
2022-09-28T04:53:13.549Z,977.08
2022-09-28T04:54:11.530Z,977.13
2022-09-28T04:55:11.498Z,977.12
2022-09-28T04:56:11.526Z,977.12
2022-09-28T04:57:11.531Z,977.13
2022-09-28T04:58:11.485Z,977.06
2022-09-28T04:59:11.465Z,977.17
2022-09-28T05:00:11.469Z,977.12
2022-09-28T05:01:11.497Z,977.10
2022-09-28T05:02:11.517Z,977.10
2022-09-28T05:03:11.433Z,977.10
2022-09-28T05:04:11.452Z,977.12
2022-09-28T05:05:11.448Z,977.08
2022-09-28T05:06:11.422Z,977.11
2022-09-28T05:07:11.423Z,977.14
2022-09-28T05:08:11.420Z,977.16
2022-09-28T05:09:11.403Z,977.18
2022-09-28T05:10:11.419Z,977.15
2022-09-28T05:11:11.403Z,977.18
2022-09-28T05:12:11.392Z,977.16
2022-09-28T05:13:11.388Z,977.17
2022-09-28T05:14:11.374Z,977.16
2022-09-28T05:15:11.382Z,977.18
2022-09-28T05:16:11.382Z,977.18
2022-09-28T05:17:11.365Z,977.19
2022-09-28T05:18:11.355Z,977.21
2022-09-28T05:19:11.347Z,977.20
2022-09-28T05:20:11.347Z,977.23
2022-09-28T05:21:11.413Z,977.26
2022-09-28T05:22:11.395Z,977.25
2022-09-28T05:23:11.332Z,977.30
2022-09-28T05:24:11.327Z,977.27
2022-09-28T05:25:11.344Z,977.23
2022-09-28T05:26:11.332Z,977.25
2022-09-28T05:27:11.297Z,977.27
2022-09-28T05:28:11.315Z,977.26
2022-09-28T05:29:11.287Z,977.32
2022-09-28T05:30:12.307Z,977.31
2022-09-28T05:31:11.283Z,977.28
2022-09-28T05:32:11.336Z,977.25
2022-09-28T05:33:11.278Z,977.30
2022-09-28T05:34:11.280Z,977.26
2022-09-28T05:35:11.266Z,977.29
2022-09-28T05:36:11.272Z,977.35
2022-09-28T05:37:11.248Z,977.31
2022-09-28T05:38:11.243Z,977.28
2022-09-28T05:39:11.300Z,977.38
2022-09-28T05:40:11.254Z,977.30
2022-09-28T05:41:11.266Z,977.36
2022-09-28T05:42:11.211Z,977.38
2022-09-28T05:43:11.225Z,977.37
2022-09-28T05:44:12.195Z,977.38
2022-09-28T05:45:11.295Z,977.37
2022-09-28T05:46:11.284Z,977.41
2022-09-28T05:47:11.204Z,977.43
2022-09-28T05:48:11.175Z,977.43
2022-09-28T05:49:11.211Z,977.43
2022-09-28T05:50:11.218Z,977.42
2022-09-28T05:51:12.245Z,977.48
2022-09-28T05:52:11.155Z,977.48
2022-09-28T05:53:11.168Z,977.50
2022-09-28T05:54:11.183Z,977.39
2022-09-28T05:55:11.150Z,977.51
2022-09-28T05:56:11.136Z,977.53
2022-09-28T05:57:11.153Z,977.51
2022-09-28T05:58:11.140Z,977.48
2022-09-28T05:59:11.157Z,977.50
2022-09-28T06:00:11.137Z,977.53
2022-09-28T06:01:11.286Z,977.56
2022-09-28T06:02:11.158Z,977.52
2022-09-28T06:03:11.108Z,977.51
2022-09-28T06:04:11.205Z,977.52
2022-09-28T06:05:11.108Z,977.56
2022-09-28T06:06:11.079Z,977.54
2022-09-28T06:07:11.095Z,977.50
2022-09-28T06:08:11.073Z,977.58
2022-09-28T06:09:11.084Z,977.55
2022-09-28T06:10:11.069Z,977.58
2022-09-28T06:11:11.047Z,977.61
2022-09-28T06:12:11.048Z,977.62
2022-09-28T06:13:11.052Z,977.58
2022-09-28T06:14:11.116Z,977.57
2022-09-28T06:15:11.030Z,977.59
2022-09-28T06:16:11.055Z,977.60
2022-09-28T06:17:11.027Z,977.69
2022-09-28T06:18:11.039Z,977.64
2022-09-28T06:19:11.028Z,977.66
2022-09-28T06:20:11.027Z,977.60
2022-09-28T06:21:11.003Z,977.64
2022-09-28T06:22:10.984Z,977.63
2022-09-28T06:23:10.980Z,977.67
2022-09-28T06:24:11.038Z,977.66
2022-09-28T06:25:10.985Z,977.64
2022-09-28T06:26:10.960Z,977.65
2022-09-28T06:27:10.978Z,977.67
2022-09-28T06:28:10.966Z,977.67
2022-09-28T06:29:12.825Z,977.68
2022-09-28T06:30:11.955Z,977.72
2022-09-28T06:31:11.008Z,977.76
2022-09-28T06:32:10.919Z,977.75
2022-09-28T06:33:10.947Z,977.74
2022-09-28T06:34:10.956Z,977.77
2022-09-28T06:35:10.915Z,977.80
2022-09-28T06:36:10.927Z,977.81
2022-09-28T06:37:11.588Z,977.79
2022-09-28T06:38:10.899Z,977.85
2022-09-28T06:39:10.905Z,977.81
2022-09-28T06:40:10.899Z,977.77
2022-09-28T06:41:10.883Z,977.79
2022-09-28T06:42:10.918Z,977.80
2022-09-28T06:43:10.888Z,977.85
2022-09-28T06:44:10.962Z,977.83
2022-09-28T06:45:10.923Z,977.86
2022-09-28T06:46:10.943Z,977.90
2022-09-28T06:47:10.834Z,977.87
2022-09-28T06:48:10.851Z,977.89
2022-09-28T06:49:10.834Z,977.89
2022-09-28T06:50:10.840Z,977.89
2022-09-28T06:51:10.826Z,977.89
2022-09-28T06:52:10.810Z,977.95
2022-09-28T06:53:10.816Z,977.90
2022-09-28T06:54:10.849Z,977.89
2022-09-28T06:55:10.799Z,977.91
2022-09-28T06:56:10.809Z,977.97
2022-09-28T06:57:10.779Z,977.97
2022-09-28T06:58:10.781Z,977.98
2022-09-28T06:59:10.783Z,978.00
2022-09-28T07:00:10.806Z,977.96
2022-09-28T07:01:10.874Z,977.95
2022-09-28T07:02:10.939Z,977.93
2022-09-28T07:03:10.747Z,977.97
2022-09-28T07:04:10.757Z,977.99
2022-09-28T07:05:10.758Z,978.03
2022-09-28T07:06:10.760Z,978.03
2022-09-28T07:07:10.747Z,977.96
2022-09-28T07:08:10.778Z,978.00
2022-09-28T07:09:30.101Z,978.00
2022-09-28T07:10:12.698Z,978.06
2022-09-28T07:11:10.723Z,978.09
2022-09-28T07:12:10.706Z,978.07
2022-09-28T07:13:29.275Z,978.13
2022-09-28T07:14:23.194Z,978.06
2022-09-28T07:15:12.679Z,978.15
2022-09-28T07:16:10.738Z,978.14
2022-09-28T07:17:14.282Z,978.24
2022-09-28T07:18:11.668Z,978.23
2022-09-28T07:19:10.642Z,978.31
2022-09-28T07:20:18.071Z,978.38
2022-09-28T07:21:25.095Z,978.30
2022-09-28T07:22:17.447Z,978.24
2022-09-28T07:23:19.470Z,978.25
2022-09-28T07:24:12.613Z,978.38
2022-09-28T07:25:10.610Z,978.33
2022-09-28T07:26:10.598Z,978.34
2022-09-28T07:27:10.610Z,978.34
2022-09-28T07:28:10.766Z,978.24
2022-09-28T07:29:10.580Z,978.24
2022-09-28T07:30:10.592Z,978.30
2022-09-28T07:31:10.650Z,978.30
2022-09-28T07:32:10.557Z,978.35
2022-09-28T07:33:10.577Z,978.38
2022-09-28T07:34:10.670Z,978.37
2022-09-28T07:35:10.543Z,978.27
2022-09-28T07:36:10.525Z,978.36
2022-09-28T07:37:10.528Z,978.36
2022-09-28T07:38:10.517Z,978.36
2022-09-28T07:39:10.516Z,978.44
2022-09-28T07:40:10.610Z,978.65
2022-09-28T07:41:10.631Z,978.40
2022-09-28T07:42:10.483Z,978.46
2022-09-28T07:43:10.485Z,978.55
2022-09-28T07:44:11.488Z,978.47
2022-09-28T07:45:10.484Z,978.39
2022-09-28T07:46:10.526Z,978.41
2022-09-28T07:47:10.506Z,978.42
2022-09-28T07:49:12.383Z,978.46
2022-09-28T07:50:10.461Z,978.46
2022-09-28T07:51:10.437Z,978.49
2022-09-28T07:52:10.425Z,978.49
2022-09-28T07:53:10.413Z,978.43
2022-09-28T07:54:10.420Z,978.53
2022-09-28T07:55:11.436Z,978.50
2022-09-28T07:56:10.393Z,978.50
2022-09-28T07:57:10.475Z,978.48
2022-09-28T07:58:10.389Z,978.47
2022-09-28T07:59:10.394Z,978.49
2022-09-28T08:00:10.415Z,978.58
2022-09-28T08:01:10.547Z,978.59
2022-09-28T08:02:10.411Z,978.53
2022-09-28T08:03:10.347Z,978.53
2022-09-28T08:04:10.344Z,978.60
2022-09-28T08:05:10.343Z,978.56
2022-09-28T08:06:10.363Z,978.67
2022-09-28T08:07:10.324Z,978.59
2022-09-28T08:08:10.364Z,978.56
2022-09-28T08:09:10.355Z,978.55
2022-09-28T08:10:10.341Z,978.60
2022-09-28T08:11:10.296Z,978.57
2022-09-28T08:12:10.349Z,978.51
2022-09-28T08:13:10.272Z,978.60
2022-09-28T08:14:36.700Z,978.54
2022-09-28T08:15:10.265Z,978.59
2022-09-28T08:16:10.300Z,978.60
2022-09-28T08:17:10.280Z,978.64
2022-09-28T08:18:10.248Z,978.66
2022-09-28T08:19:10.268Z,978.59
2022-09-28T08:20:10.268Z,978.62
2022-09-28T08:21:11.220Z,978.61
2022-09-28T08:22:10.215Z,978.62
2022-09-28T08:23:10.224Z,978.58
2022-09-28T08:24:10.251Z,978.76
2022-09-28T08:25:10.182Z,978.69
2022-09-28T08:26:15.255Z,978.71
2022-09-28T08:27:12.195Z,978.72
2022-09-28T08:28:10.188Z,978.70
2022-09-28T08:29:10.171Z,978.73
2022-09-28T08:30:10.214Z,978.76
2022-09-28T08:31:10.220Z,978.70
2022-09-28T08:32:10.145Z,978.74
2022-09-28T08:33:10.143Z,978.72
2022-09-28T08:34:10.174Z,978.71
2022-09-28T08:35:10.140Z,978.71
2022-09-28T08:36:10.164Z,978.71
2022-09-28T08:37:10.107Z,978.79
2022-09-28T08:38:10.102Z,978.81
2022-09-28T08:39:10.097Z,978.88
2022-09-28T08:40:10.159Z,978.90
2022-09-28T08:41:10.169Z,978.88
2022-09-28T08:42:10.068Z,978.83
2022-09-28T08:43:10.087Z,978.85
2022-09-28T08:44:10.161Z,978.81
2022-09-28T08:45:10.072Z,978.85
2022-09-28T08:46:10.108Z,978.84
2022-09-28T08:47:10.074Z,978.86
2022-09-28T08:48:10.058Z,978.87
2022-09-28T08:49:30.678Z,978.87
2022-09-28T08:50:12.027Z,978.81
2022-09-28T08:51:10.020Z,978.80
2022-09-28T08:52:10.025Z,978.82
2022-09-28T08:53:10.005Z,978.90
2022-09-28T08:54:11.892Z,978.92
2022-09-28T08:55:09.990Z,978.91
2022-09-28T08:56:10.029Z,978.89
2022-09-28T08:57:09.972Z,978.97
2022-09-28T08:58:09.993Z,978.95
2022-09-28T08:59:09.993Z,978.94
2022-09-28T09:00:11.826Z,978.88
2022-09-28T09:01:10.029Z,978.94
2022-09-28T09:02:10.026Z,978.97
2022-09-28T09:03:09.956Z,978.96
2022-09-28T09:04:09.913Z,978.91
2022-09-28T09:05:10.918Z,978.96
2022-09-28T09:06:09.905Z,978.98
2022-09-28T09:07:09.950Z,978.97
2022-09-28T09:08:09.929Z,979.06
2022-09-28T09:09:09.892Z,979.04
2022-09-28T09:10:09.887Z,979.03
2022-09-28T09:11:09.883Z,979.03
2022-09-28T09:12:09.860Z,979.06
2022-09-28T09:13:09.872Z,979.09
2022-09-28T09:14:09.886Z,979.09
2022-09-28T09:15:09.918Z,979.07
2022-09-28T09:16:09.857Z,979.14
2022-09-28T09:17:09.831Z,979.14
2022-09-28T09:18:09.840Z,979.14
2022-09-28T09:19:09.852Z,979.13
2022-09-28T09:20:09.811Z,979.16
2022-09-28T09:21:09.810Z,979.14
2022-09-28T09:22:09.800Z,979.16
2022-09-28T09:23:09.799Z,979.18
2022-09-28T09:24:09.784Z,979.15
2022-09-28T09:25:09.787Z,979.15
2022-09-28T09:26:09.799Z,979.17
2022-09-28T09:27:09.768Z,979.14
2022-09-28T09:28:09.768Z,979.13
2022-09-28T09:29:09.751Z,979.14
2022-09-28T09:30:09.741Z,979.20
2022-09-28T09:31:09.811Z,979.18
2022-09-28T09:32:09.744Z,979.22
2022-09-28T09:33:09.738Z,979.30
2022-09-28T09:34:09.703Z,979.22
2022-09-28T09:35:10.713Z,979.27
2022-09-28T09:36:09.739Z,979.51
2022-09-28T09:37:09.702Z,979.69
2022-09-28T09:38:09.683Z,979.24
2022-09-28T09:39:09.736Z,979.21
2022-09-28T09:40:09.714Z,979.22
2022-09-28T09:41:09.753Z,979.28
2022-09-28T09:42:09.670Z,979.19
2022-09-28T09:43:09.663Z,979.13
2022-09-28T09:44:09.753Z,979.12
2022-09-28T09:45:09.671Z,979.22
2022-09-28T09:46:09.716Z,979.19
2022-09-28T09:47:09.677Z,979.21
2022-09-28T09:48:09.637Z,979.14
2022-09-28T09:49:09.668Z,979.20
2022-09-28T09:50:09.662Z,979.19
2022-09-28T09:51:09.636Z,979.17
2022-09-28T09:52:09.638Z,979.22
2022-09-28T09:53:09.753Z,979.29
2022-09-28T09:54:09.610Z,979.28
2022-09-28T09:55:09.607Z,979.46
2022-09-28T09:56:09.603Z,979.46
2022-09-28T09:57:09.583Z,979.44
2022-09-28T09:58:09.582Z,979.45
2022-09-28T09:59:09.584Z,979.43
2022-09-28T10:00:09.562Z,979.43
2022-09-28T10:01:09.627Z,979.39
2022-09-28T10:02:11.799Z,979.47
2022-09-28T10:03:10.590Z,979.52
2022-09-28T10:04:09.554Z,979.42
2022-09-28T10:05:09.553Z,979.43
2022-09-28T10:06:09.521Z,979.39
2022-09-28T10:07:09.521Z,979.45
2022-09-28T10:08:09.510Z,979.45
2022-09-28T10:09:09.513Z,979.43
2022-09-28T10:10:09.508Z,979.43
2022-09-28T10:11:09.492Z,979.41
2022-09-28T10:12:09.489Z,979.40
2022-09-28T10:13:09.472Z,979.46
2022-09-28T10:14:09.467Z,979.47
2022-09-28T10:15:09.473Z,979.47
2022-09-28T10:16:09.459Z,979.46
2022-09-28T10:17:09.633Z,979.45
2022-09-28T10:18:09.468Z,979.50
2022-09-28T10:19:09.449Z,979.49
2022-09-28T10:20:09.428Z,979.51
2022-09-28T10:21:09.421Z,979.66
2022-09-28T10:22:09.429Z,979.59
2022-09-28T10:23:09.432Z,979.60
2022-09-28T10:24:09.404Z,979.66
2022-09-28T10:25:09.428Z,979.70
2022-09-28T10:26:09.424Z,979.88
2022-09-28T10:27:09.368Z,979.89
2022-09-28T10:28:09.389Z,979.83
2022-09-28T10:29:09.404Z,979.86
2022-09-28T10:30:09.377Z,979.77
2022-09-28T10:32:09.350Z,979.72
2022-09-28T10:33:09.390Z,979.66
2022-09-28T10:34:09.358Z,979.53
2022-09-28T10:35:09.345Z,979.76
2022-09-28T10:36:09.322Z,979.62
2022-09-28T10:37:09.343Z,979.64
2022-09-28T10:38:09.326Z,979.43
2022-09-28T10:39:09.306Z,979.43
2022-09-28T10:40:09.301Z,979.50
2022-09-28T10:41:09.322Z,979.43
2022-09-28T10:42:09.288Z,979.37
2022-09-28T10:43:09.296Z,979.43
2022-09-28T10:44:09.364Z,979.46
2022-09-28T10:45:09.280Z,979.42
2022-09-28T10:46:09.358Z,979.55
2022-09-28T10:47:09.252Z,979.44
2022-09-28T10:48:09.253Z,979.45
2022-09-28T10:49:09.258Z,979.66
2022-09-28T10:50:09.236Z,979.88
2022-09-28T10:51:09.236Z,979.81
2022-09-28T10:52:09.235Z,979.79
2022-09-28T10:53:09.220Z,979.82
2022-09-28T10:54:09.226Z,979.87
2022-09-28T10:55:09.211Z,979.73
2022-09-28T10:56:09.195Z,979.69
2022-09-28T10:57:13.301Z,979.57
2022-09-28T10:58:10.199Z,979.64
2022-09-28T10:59:09.202Z,979.72
2022-09-28T11:00:09.182Z,979.77
2022-09-28T11:01:09.290Z,979.59
2022-09-28T11:02:09.285Z,979.48
2022-09-28T11:03:09.163Z,979.34
2022-09-28T11:04:09.195Z,979.29
2022-09-28T11:05:09.147Z,979.35
2022-09-28T11:06:09.156Z,979.28
2022-09-28T11:07:09.117Z,979.36
2022-09-28T11:08:09.114Z,979.33
2022-09-28T11:09:09.098Z,979.29
2022-09-28T11:10:09.129Z,979.21
2022-09-28T11:11:09.089Z,979.30
2022-09-28T11:12:09.117Z,979.26
2022-09-28T11:13:09.097Z,979.31
2022-09-28T11:14:09.089Z,979.52
2022-09-28T11:15:09.114Z,979.39
2022-09-28T11:16:09.083Z,979.39
2022-09-28T11:17:09.110Z,979.32
2022-09-28T11:18:09.093Z,979.50
2022-09-28T11:19:09.052Z,979.29
2022-09-28T11:20:09.069Z,979.38
2022-09-28T11:21:12.556Z,979.30
2022-09-28T11:22:13.058Z,979.29
2022-09-28T11:23:10.025Z,979.34
2022-09-28T11:24:09.017Z,979.31
2022-09-28T11:25:09.024Z,979.32
2022-09-28T11:26:09.089Z,979.30
2022-09-28T11:27:09.020Z,979.36
2022-09-28T11:28:09.001Z,979.36
2022-09-28T11:29:08.991Z,979.37
2022-09-28T11:30:09.007Z,979.43
2022-09-28T11:31:09.070Z,979.34
2022-09-28T11:32:12.421Z,979.39
2022-09-28T11:33:09.964Z,979.36
2022-09-28T11:34:08.969Z,979.36
2022-09-28T11:35:08.956Z,979.34
2022-09-28T11:36:08.951Z,979.40
2022-09-28T11:37:09.769Z,979.36
2022-09-28T11:38:08.972Z,979.41
2022-09-28T11:39:08.976Z,979.44
2022-09-28T11:40:08.916Z,979.40
2022-09-28T11:41:08.909Z,979.41
2022-09-28T11:42:10.982Z,979.46
2022-09-28T11:43:10.725Z,979.54
2022-09-28T11:44:08.928Z,979.47
2022-09-28T11:45:08.975Z,979.48
2022-09-28T11:46:08.959Z,979.48
2022-09-28T11:47:08.894Z,979.57
2022-09-28T11:48:08.931Z,979.52
2022-09-28T11:49:08.874Z,979.54
2022-09-28T11:50:08.856Z,979.47
2022-09-28T11:51:08.865Z,979.52
2022-09-28T11:52:08.834Z,979.75
2022-09-28T11:53:08.918Z,979.53
2022-09-28T11:54:08.819Z,979.60
2022-09-28T11:55:08.810Z,979.66
2022-09-28T11:56:09.260Z,979.59
2022-09-28T11:57:09.806Z,979.54
2022-09-28T11:58:08.978Z,979.79
2022-09-28T11:59:08.805Z,979.58
2022-09-28T12:00:08.786Z,979.88
2022-09-28T12:01:09.774Z,979.95
2022-09-28T12:02:08.903Z,979.97
2022-09-28T12:03:08.916Z,979.98
2022-09-28T12:04:08.760Z,979.92
2022-09-28T12:05:08.765Z,979.93
2022-09-28T12:06:08.904Z,979.64
2022-09-28T12:07:08.736Z,979.72
2022-09-28T12:08:08.728Z,979.51
2022-09-28T12:09:09.810Z,979.50
2022-09-28T12:10:08.750Z,979.43
2022-09-28T12:11:08.734Z,979.55
2022-09-28T12:12:09.801Z,979.46
2022-09-28T12:13:08.697Z,979.55
2022-09-28T12:14:08.699Z,979.47
2022-09-28T12:15:08.703Z,979.51
2022-09-28T12:16:27.565Z,979.53
2022-09-28T12:17:10.750Z,979.48
2022-09-28T12:18:08.724Z,979.51
2022-09-28T12:19:08.680Z,979.52
2022-09-28T12:20:08.675Z,979.56
2022-09-28T12:21:08.665Z,979.55
2022-09-28T12:22:08.785Z,979.56
2022-09-28T12:23:08.650Z,979.57
2022-09-28T12:24:08.624Z,979.59
2022-09-28T12:25:08.636Z,979.56
2022-09-28T12:26:08.610Z,979.54
2022-09-28T12:27:08.657Z,979.57
2022-09-28T12:28:08.617Z,979.56
2022-09-28T12:29:08.593Z,979.56
2022-09-28T12:30:08.579Z,979.89